Terminal Aerodrome Forecast
Issued by NWS

Home | Current Version | Previous Version | Text Only | Print | Product List | Glossary On
Versions: 1 2 3 4 5 6 7 8 9 10 11 12 13 14 15 16 17
975
FTUS45 KFGZ 260527
TAFSEZ
TAF
KSEZ 260527Z 2606/2706 04008KT P6SM SCT100 BKN150
     FM262200 VRB05KT P6SM SCT080 BKN100 PROB30 2622/2624 TSRA
      BKN080CB=

USA.gov is the U.S. government's official web portal to all federal, state and local government web resources and services.